Enter the Airport ICAO Code

Search by Airport or City

Current Weather

LEMG | Málaga Airport

Málaga, Andalusia, Spain

Last Update 13 Minutes Ago

Clear Sky

Temperature of 30 ºC

Light to Moderate Winds from SouthEast

Temperature

30 ºC

Dew Point Temperature

16 ºC

Relative Humidity

43.05 %

Wind Direction

SouthEast (150º, Ranging from 070º to 170º)

Wind Velocity

11 km/h (06 kt)

Gusts

None

Visibility

No Significant Reductions

Sea Level Pressure

1017 hPa (Hectopascals)

Layers of Clouds

None

METAR LEMG 131000Z 15006KT 070V170 CAVOK 30/16 Q1017 NOSIG

Weather Forecast

LEMG | Málaga Airport

Málaga, Andalusia, Spain

Forecast valid for the next 20 Hours

From now on it is expected:

Light to Moderate Winds from SouthEast

In 9 to 12 hours it is expected the begining of:

Light Winds from Variable Directions

In 14 hours it is expected the begining of 6 hours with intermittent periods of:

Light to Moderate Winds from West

Maximum Temperature

30 ºC in 4 Hours

Minimum Temperature

22 ºC in 19 Hours

TAF LEMG 130500Z 1306/1406 29004KT 9999 FEW020 TX30/1314Z TN22/1405Z BECMG 1308/1310 15009KT BECMG 1319/1322 VRB02KT PROB40 TEMPO 1400/1406 29006KT